HGD weather

Hughenden Airport
Queensland, Australia

Public forecast

Using degrees Celsius for public forecast. Weather courtesy of forecast.io.

METAR (pilot weather report)

Retrieved 2019/04/18 23:00 UTC (57 minutes ago):

YHUG 182300Z AUTO 09013KT 9999 // NCD 25/14 Q1020

TAF (pilot weather forecast)

Closest forecast is Townsville Airport, 171.2 nm (317.2 km) ENE. Retrieved 2019/04/18 18:00 UTC (6 hours ago):

TAF YBTL 181700Z 1818/1918 14008KT 9999 FEW025 FM190100 09017KT 9999 FEW030 SCT060 FM190800 13008KT 9999 FEW025 SCT050